sensor_id;sensor_type;location;lat;lon;timestamp;P1;durP1;ratioP1;P2;durP2;ratioP2
26113;SDS011;13966;48.828;9.064;2023-05-15T00:01:37;9.90;;;6.82;;
26113;SDS011;13966;48.828;9.064;2023-05-15T00:04:03;8.20;;;6.18;;
26113;SDS011;13966;48.828;9.064;2023-05-15T00:06:29;10.98;;;6.78;;
26113;SDS011;13966;48.828;9.064;2023-05-15T00:08:56;7.68;;;6.07;;
26113;SDS011;13966;48.828;9.064;2023-05-15T00:11:22;7.68;;;6.35;;
26113;SDS011;13966;48.828;9.064;2023-05-15T00:13:51;7.75;;;6.35;;
26113;SDS011;13966;48.828;9.064;2023-05-15T00:16:17;8.13;;;6.47;;
26113;SDS011;13966;48.828;9.064;2023-05-15T00:18:43;7.82;;;5.97;;
26113;SDS011;13966;48.828;9.064;2023-05-15T00:21:09;8.15;;;6.40;;
26113;SDS011;13966;48.828;9.064;2023-05-15T00:23:35;7.90;;;6.80;;
26113;SDS011;13966;48.828;9.064;2023-05-15T00:26:01;9.95;;;6.22;;
26113;SDS011;13966;48.828;9.064;2023-05-15T00:28:28;8.40;;;6.13;;
26113;SDS011;13966;48.828;9.064;2023-05-15T00:30:54;10.00;;;6.63;;
26113;SDS011;13966;48.828;9.064;2023-05-15T00:33:20;9.30;;;6.43;;
26113;SDS011;13966;48.828;9.064;2023-05-15T00:35:46;7.70;;;6.05;;
26113;SDS011;13966;48.828;9.064;2023-05-15T00:38:12;9.32;;;6.72;;
26113;SDS011;13966;48.828;9.064;2023-05-15T00:40:38;7.90;;;6.35;;
26113;SDS011;13966;48.828;9.064;2023-05-15T00:43:04;7.60;;;5.88;;
26113;SDS011;13966;48.828;9.064;2023-05-15T00:45:30;9.18;;;6.63;;
26113;SDS011;13966;48.828;9.064;2023-05-15T00:47:57;10.35;;;6.80;;
26113;SDS011;13966;48.828;9.064;2023-05-15T00:50:23;11.38;;;6.68;;
26113;SDS011;13966;48.828;9.064;2023-05-15T00:52:49;8.35;;;6.00;;
26113;SDS011;13966;48.828;9.064;2023-05-15T00:55:15;8.52;;;6.35;;
26113;SDS011;13966;48.828;9.064;2023-05-15T00:57:42;7.45;;;6.07;;
26113;SDS011;13966;48.828;9.064;2023-05-15T01:00:08;7.43;;;6.07;;
26113;SDS011;13966;48.828;9.064;2023-05-15T01:02:36;8.40;;;6.50;;
26113;SDS011;13966;48.828;9.064;2023-05-15T01:05:02;9.35;;;6.32;;
26113;SDS011;13966;48.828;9.064;2023-05-15T01:07:29;7.68;;;6.00;;
26113;SDS011;13966;48.828;9.064;2023-05-15T01:09:57;7.60;;;6.25;;
26113;SDS011;13966;48.828;9.064;2023-05-15T01:12:24;7.72;;;5.68;;
26113;SDS011;13966;48.828;9.064;2023-05-15T01:14:51;8.30;;;6.10;;
26113;SDS011;13966;48.828;9.064;2023-05-15T01:17:17;7.65;;;5.57;;
26113;SDS011;13966;48.828;9.064;2023-05-15T01:19:43;8.65;;;6.28;;
26113;SDS011;13966;48.828;9.064;2023-05-15T01:22:26;6.85;;;5.65;;
26113;SDS011;13966;48.828;9.064;2023-05-15T01:25:16;6.53;;;5.65;;
26113;SDS011;13966;48.828;9.064;2023-05-15T01:27:57;9.45;;;6.25;;
26113;SDS011;13966;48.828;9.064;2023-05-15T01:30:31;6.78;;;5.68;;
26113;SDS011;13966;48.828;9.064;2023-05-15T01:40:55;7.85;;;5.63;;
26113;SDS011;13966;48.828;9.064;2023-05-15T01:43:23;7.57;;;5.57;;
26113;SDS011;13966;48.828;9.064;2023-05-15T01:45:49;8.45;;;6.07;;
26113;SDS011;13966;48.828;9.064;2023-05-15T01:48:15;7.78;;;5.50;;
26113;SDS011;13966;48.828;9.064;2023-05-15T01:50:42;6.43;;;5.40;;
26113;SDS011;13966;48.828;9.064;2023-05-15T01:53:10;7.85;;;5.72;;
26113;SDS011;13966;48.828;9.064;2023-05-15T01:55:36;6.43;;;5.28;;
26113;SDS011;13966;48.828;9.064;2023-05-15T01:58:03;7.40;;;5.15;;
26113;SDS011;13966;48.828;9.064;2023-05-15T02:00:30;8.30;;;5.13;;
26113;SDS011;13966;48.828;9.064;2023-05-15T02:02:57;6.57;;;5.68;;
26113;SDS011;13966;48.828;9.064;2023-05-15T02:05:24;6.45;;;5.68;;
26113;SDS011;13966;48.828;9.064;2023-05-15T02:07:51;6.38;;;5.47;;
26113;SDS011;13966;48.828;9.064;2023-05-15T02:10:17;9.57;;;5.70;;
26113;SDS011;13966;48.828;9.064;2023-05-15T02:12:44;5.93;;;5.13;;
26113;SDS011;13966;48.828;9.064;2023-05-15T02:15:11;8.75;;;5.82;;
26113;SDS011;13966;48.828;9.064;2023-05-15T02:17:37;6.50;;;5.53;;
26113;SDS011;13966;48.828;9.064;2023-05-15T02:20:04;7.30;;;5.80;;
26113;SDS011;13966;48.828;9.064;2023-05-15T02:22:30;9.70;;;5.18;;
26113;SDS011;13966;48.828;9.064;2023-05-15T02:24:56;6.80;;;5.53;;
26113;SDS011;13966;48.828;9.064;2023-05-15T02:27:26;6.15;;;5.25;;
26113;SDS011;13966;48.828;9.064;2023-05-15T02:32:40;5.82;;;4.97;;
26113;SDS011;13966;48.828;9.064;2023-05-15T02:37:54;6.35;;;5.40;;
26113;SDS011;13966;48.828;9.064;2023-05-15T02:40:22;6.28;;;5.40;;
26113;SDS011;13966;48.828;9.064;2023-05-15T02:42:49;7.65;;;5.63;;
26113;SDS011;13966;48.828;9.064;2023-05-15T02:45:17;6.45;;;5.32;;
26113;SDS011;13966;48.828;9.064;2023-05-15T02:47:44;8.50;;;5.80;;
26113;SDS011;13966;48.828;9.064;2023-05-15T02:50:10;7.45;;;5.55;;
26113;SDS011;13966;48.828;9.064;2023-05-15T02:52:36;7.25;;;5.72;;
26113;SDS011;13966;48.828;9.064;2023-05-15T02:55:02;5.85;;;5.25;;
26113;SDS011;13966;48.828;9.064;2023-05-15T02:57:28;8.88;;;5.97;;
26113;SDS011;13966;48.828;9.064;2023-05-15T02:59:54;6.07;;;5.32;;
26113;SDS011;13966;48.828;9.064;2023-05-15T03:02:21;7.47;;;5.63;;
26113;SDS011;13966;48.828;9.064;2023-05-15T03:04:47;8.15;;;5.63;;
26113;SDS011;13966;48.828;9.064;2023-05-15T03:07:13;6.72;;;5.38;;
26113;SDS011;13966;48.828;9.064;2023-05-15T03:09:39;8.30;;;5.35;;
26113;SDS011;13966;48.828;9.064;2023-05-15T03:12:06;8.20;;;5.03;;
26113;SDS011;13966;48.828;9.064;2023-05-15T03:14:32;7.88;;;5.53;;
26113;SDS011;13966;48.828;9.064;2023-05-15T03:16:58;8.00;;;6.25;;
26113;SDS011;13966;48.828;9.064;2023-05-15T03:19:24;7.13;;;5.72;;
26113;SDS011;13966;48.828;9.064;2023-05-15T03:21:51;6.70;;;5.28;;
26113;SDS011;13966;48.828;9.064;2023-05-15T03:24:17;5.53;;;4.82;;
26113;SDS011;13966;48.828;9.064;2023-05-15T03:26:43;6.47;;;4.95;;
26113;SDS011;13966;48.828;9.064;2023-05-15T03:29:09;7.63;;;5.32;;
26113;SDS011;13966;48.828;9.064;2023-05-15T03:31:35;6.18;;;5.28;;
26113;SDS011;13966;48.828;9.064;2023-05-15T03:34:01;6.13;;;5.15;;
26113;SDS011;13966;48.828;9.064;2023-05-15T03:36:27;7.80;;;5.30;;
26113;SDS011;13966;48.828;9.064;2023-05-15T03:38:53;6.50;;;4.95;;
26113;SDS011;13966;48.828;9.064;2023-05-15T03:41:20;7.05;;;5.70;;
26113;SDS011;13966;48.828;9.064;2023-05-15T03:43:46;6.72;;;5.47;;
26113;SDS011;13966;48.828;9.064;2023-05-15T03:46:12;6.57;;;5.05;;
26113;SDS011;13966;48.828;9.064;2023-05-15T03:48:38;8.10;;;5.28;;
26113;SDS011;13966;48.828;9.064;2023-05-15T03:51:04;6.55;;;5.65;;
26113;SDS011;13966;48.828;9.064;2023-05-15T03:53:30;6.85;;;5.43;;
26113;SDS011;13966;48.828;9.064;2023-05-15T03:55:56;7.78;;;5.45;;
26113;SDS011;13966;48.828;9.064;2023-05-15T03:58:22;8.27;;;6.30;;
26113;SDS011;13966;48.828;9.064;2023-05-15T04:00:48;8.13;;;5.72;;
26113;SDS011;13966;48.828;9.064;2023-05-15T04:03:14;6.90;;;5.95;;
26113;SDS011;13966;48.828;9.064;2023-05-15T04:05:40;6.57;;;4.93;;
26113;SDS011;13966;48.828;9.064;2023-05-15T04:08:06;7.97;;;5.97;;
26113;SDS011;13966;48.828;9.064;2023-05-15T04:10:34;9.65;;;6.07;;
26113;SDS011;13966;48.828;9.064;2023-05-15T04:13:00;8.20;;;5.28;;
26113;SDS011;13966;48.828;9.064;2023-05-15T04:15:26;8.63;;;5.25;;
26113;SDS011;13966;48.828;9.064;2023-05-15T04:17:52;9.02;;;6.40;;
26113;SDS011;13966;48.828;9.064;2023-05-15T04:20:19;7.95;;;6.03;;
26113;SDS011;13966;48.828;9.064;2023-05-15T04:22:45;7.38;;;6.25;;
26113;SDS011;13966;48.828;9.064;2023-05-15T04:25:12;8.10;;;5.97;;
26113;SDS011;13966;48.828;9.064;2023-05-15T04:27:39;6.93;;;5.88;;
26113;SDS011;13966;48.828;9.064;2023-05-15T04:30:05;7.30;;;5.80;;
26113;SDS011;13966;48.828;9.064;2023-05-15T04:32:31;6.68;;;5.95;;
26113;SDS011;13966;48.828;9.064;2023-05-15T04:34:58;6.85;;;5.25;;
26113;SDS011;13966;48.828;9.064;2023-05-15T04:37:25;7.68;;;5.90;;
26113;SDS011;13966;48.828;9.064;2023-05-15T04:39:51;6.90;;;5.75;;
26113;SDS011;13966;48.828;9.064;2023-05-15T04:42:17;10.23;;;6.15;;
26113;SDS011;13966;48.828;9.064;2023-05-15T04:44:43;8.50;;;5.50;;
26113;SDS011;13966;48.828;9.064;2023-05-15T04:47:09;7.93;;;5.65;;
26113;SDS011;13966;48.828;9.064;2023-05-15T04:49:39;7.95;;;6.15;;
26113;SDS011;13966;48.828;9.064;2023-05-15T04:52:05;9.02;;;6.05;;
26113;SDS011;13966;48.828;9.064;2023-05-15T04:54:31;8.70;;;5.93;;
26113;SDS011;13966;48.828;9.064;2023-05-15T04:56:58;8.70;;;5.63;;
26113;SDS011;13966;48.828;9.064;2023-05-15T04:59:26;10.30;;;6.50;;
26113;SDS011;13966;48.828;9.064;2023-05-15T05:01:52;8.48;;;6.15;;
26113;SDS011;13966;48.828;9.064;2023-05-15T05:04:18;8.30;;;5.78;;
26113;SDS011;13966;48.828;9.064;2023-05-15T05:06:45;10.35;;;5.95;;
26113;SDS011;13966;48.828;9.064;2023-05-15T05:09:11;10.38;;;6.05;;
26113;SDS011;13966;48.828;9.064;2023-05-15T05:11:38;8.30;;;6.35;;
26113;SDS011;13966;48.828;9.064;2023-05-15T05:14:07;12.70;;;6.15;;
26113;SDS011;13966;48.828;9.064;2023-05-15T05:16:33;7.63;;;6.25;;
26113;SDS011;13966;48.828;9.064;2023-05-15T05:18:59;18.45;;;6.60;;
26113;SDS011;13966;48.828;9.064;2023-05-15T05:21:26;6.40;;;5.80;;
26113;SDS011;13966;48.828;9.064;2023-05-15T05:23:52;9.50;;;6.60;;
26113;SDS011;13966;48.828;9.064;2023-05-15T05:26:18;7.82;;;6.60;;
26113;SDS011;13966;48.828;9.064;2023-05-15T05:28:44;10.05;;;6.07;;
26113;SDS011;13966;48.828;9.064;2023-05-15T05:31:10;8.50;;;6.60;;
26113;SDS011;13966;48.828;9.064;2023-05-15T05:33:36;9.48;;;6.90;;
26113;SDS011;13966;48.828;9.064;2023-05-15T05:36:02;9.27;;;7.13;;
26113;SDS011;13966;48.828;9.064;2023-05-15T05:38:29;8.88;;;7.40;;
26113;SDS011;13966;48.828;9.064;2023-05-15T05:40:56;9.23;;;7.47;;
26113;SDS011;13966;48.828;9.064;2023-05-15T05:43:24;11.18;;;7.38;;
26113;SDS011;13966;48.828;9.064;2023-05-15T05:45:50;12.38;;;7.07;;
26113;SDS011;13966;48.828;9.064;2023-05-15T05:48:16;10.13;;;6.68;;
26113;SDS011;13966;48.828;9.064;2023-05-15T05:50:42;9.00;;;7.28;;
26113;SDS011;13966;48.828;9.064;2023-05-15T05:53:08;8.30;;;6.95;;
26113;SDS011;13966;48.828;9.064;2023-05-15T05:55:34;11.13;;;7.05;;
26113;SDS011;13966;48.828;9.064;2023-05-15T05:58:00;10.38;;;7.15;;
26113;SDS011;13966;48.828;9.064;2023-05-15T06:00:26;6.70;;;5.93;;
26113;SDS011;13966;48.828;9.064;2023-05-15T06:02:56;9.52;;;6.30;;
26113;SDS011;13966;48.828;9.064;2023-05-15T06:05:26;8.50;;;6.17;;
26113;SDS011;13966;48.828;9.064;2023-05-15T06:07:52;8.02;;;5.75;;
26113;SDS011;13966;48.828;9.064;2023-05-15T06:10:18;7.45;;;5.53;;
26113;SDS011;13966;48.828;9.064;2023-05-15T06:12:45;6.68;;;5.50;;
26113;SDS011;13966;48.828;9.064;2023-05-15T06:15:12;9.48;;;5.47;;
26113;SDS011;13966;48.828;9.064;2023-05-15T06:17:38;6.40;;;5.22;;
26113;SDS011;13966;48.828;9.064;2023-05-15T06:20:04;7.38;;;5.38;;
26113;SDS011;13966;48.828;9.064;2023-05-15T06:22:34;7.40;;;5.68;;
26113;SDS011;13966;48.828;9.064;2023-05-15T06:25:04;7.20;;;5.43;;
26113;SDS011;13966;48.828;9.064;2023-05-15T06:27:31;7.60;;;5.10;;
26113;SDS011;13966;48.828;9.064;2023-05-15T06:29:57;6.03;;;4.78;;
26113;SDS011;13966;48.828;9.064;2023-05-15T06:32:23;6.43;;;4.65;;
26113;SDS011;13966;48.828;9.064;2023-05-15T06:34:49;9.30;;;4.93;;
26113;SDS011;13966;48.828;9.064;2023-05-15T06:37:15;7.43;;;5.03;;
26113;SDS011;13966;48.828;9.064;2023-05-15T06:39:41;5.93;;;4.50;;
26113;SDS011;13966;48.828;9.064;2023-05-15T06:42:07;6.22;;;4.32;;
26113;SDS011;13966;48.828;9.064;2023-05-15T06:44:34;7.65;;;4.20;;
26113;SDS011;13966;48.828;9.064;2023-05-15T06:47:00;7.40;;;4.07;;
26113;SDS011;13966;48.828;9.064;2023-05-15T06:49:26;5.78;;;4.40;;
26113;SDS011;13966;48.828;9.064;2023-05-15T06:51:52;5.22;;;3.70;;
26113;SDS011;13966;48.828;9.064;2023-05-15T06:54:19;5.20;;;4.10;;
26113;SDS011;13966;48.828;9.064;2023-05-15T06:56:45;6.55;;;4.20;;
26113;SDS011;13966;48.828;9.064;2023-05-15T06:59:11;8.93;;;4.45;;
26113;SDS011;13966;48.828;9.064;2023-05-15T07:01:37;6.97;;;4.03;;
26113;SDS011;13966;48.828;9.064;2023-05-15T07:04:03;6.30;;;4.10;;
26113;SDS011;13966;48.828;9.064;2023-05-15T07:06:30;7.57;;;3.92;;
26113;SDS011;13966;48.828;9.064;2023-05-15T07:08:56;4.82;;;4.32;;
26113;SDS011;13966;48.828;9.064;2023-05-15T07:11:22;5.15;;;4.05;;
26113;SDS011;13966;48.828;9.064;2023-05-15T07:13:48;8.85;;;4.20;;
26113;SDS011;13966;48.828;9.064;2023-05-15T07:16:14;4.35;;;3.63;;
26113;SDS011;13966;48.828;9.064;2023-05-15T07:18:40;6.10;;;3.67;;
26113;SDS011;13966;48.828;9.064;2023-05-15T07:21:06;5.63;;;3.78;;
26113;SDS011;13966;48.828;9.064;2023-05-15T07:23:32;4.85;;;4.10;;
26113;SDS011;13966;48.828;9.064;2023-05-15T07:25:58;6.22;;;4.15;;
26113;SDS011;13966;48.828;9.064;2023-05-15T07:28:24;6.22;;;4.20;;
26113;SDS011;13966;48.828;9.064;2023-05-15T07:30:51;6.07;;;3.85;;
26113;SDS011;13966;48.828;9.064;2023-05-15T07:33:17;5.47;;;4.07;;
26113;SDS011;13966;48.828;9.064;2023-05-15T07:35:43;5.30;;;4.13;;
26113;SDS011;13966;48.828;9.064;2023-05-15T07:38:09;5.25;;;3.95;;
26113;SDS011;13966;48.828;9.064;2023-05-15T07:40:35;5.45;;;3.90;;
26113;SDS011;13966;48.828;9.064;2023-05-15T07:43:01;5.10;;;3.90;;
26113;SDS011;13966;48.828;9.064;2023-05-15T07:45:27;4.90;;;3.70;;
26113;SDS011;13966;48.828;9.064;2023-05-15T07:47:53;3.50;;;3.00;;
26113;SDS011;13966;48.828;9.064;2023-05-15T07:50:20;6.90;;;3.45;;
26113;SDS011;13966;48.828;9.064;2023-05-15T07:52:46;3.90;;;3.13;;
26113;SDS011;13966;48.828;9.064;2023-05-15T07:55:12;7.30;;;3.08;;
26113;SDS011;13966;48.828;9.064;2023-05-15T07:57:38;4.18;;;2.97;;
26113;SDS011;13966;48.828;9.064;2023-05-15T08:00:05;5.45;;;3.10;;
26113;SDS011;13966;48.828;9.064;2023-05-15T08:02:35;5.07;;;3.10;;
26113;SDS011;13966;48.828;9.064;2023-05-15T08:05:01;3.10;;;2.80;;
26113;SDS011;13966;48.828;9.064;2023-05-15T08:07:29;4.32;;;2.95;;
26113;SDS011;13966;48.828;9.064;2023-05-15T08:09:56;2.83;;;2.50;;
26113;SDS011;13966;48.828;9.064;2023-05-15T08:12:22;5.40;;;2.60;;
26113;SDS011;13966;48.828;9.064;2023-05-15T08:14:49;4.97;;;2.60;;
26113;SDS011;13966;48.828;9.064;2023-05-15T08:17:15;5.22;;;2.88;;
26113;SDS011;13966;48.828;9.064;2023-05-15T08:19:41;9.48;;;2.70;;
26113;SDS011;13966;48.828;9.064;2023-05-15T08:22:07;3.60;;;2.63;;
26113;SDS011;13966;48.828;9.064;2023-05-15T08:24:33;3.85;;;2.70;;
26113;SDS011;13966;48.828;9.064;2023-05-15T08:26:59;4.10;;;2.90;;
26113;SDS011;13966;48.828;9.064;2023-05-15T08:29:25;4.47;;;3.00;;
26113;SDS011;13966;48.828;9.064;2023-05-15T08:31:51;4.15;;;3.00;;
26113;SDS011;13966;48.828;9.064;2023-05-15T08:34:17;4.53;;;3.03;;
26113;SDS011;13966;48.828;9.064;2023-05-15T08:36:43;5.35;;;3.00;;
26113;SDS011;13966;48.828;9.064;2023-05-15T08:39:09;4.00;;;2.65;;
26113;SDS011;13966;48.828;9.064;2023-05-15T08:41:37;3.95;;;2.72;;
26113;SDS011;13966;48.828;9.064;2023-05-15T08:44:05;4.47;;;3.10;;
26113;SDS011;13966;48.828;9.064;2023-05-15T08:46:33;2.83;;;2.58;;
26113;SDS011;13966;48.828;9.064;2023-05-15T08:49:00;3.88;;;2.78;;
26113;SDS011;13966;48.828;9.064;2023-05-15T08:51:28;3.80;;;2.80;;
26113;SDS011;13966;48.828;9.064;2023-05-15T08:53:54;4.57;;;2.80;;
26113;SDS011;13966;48.828;9.064;2023-05-15T08:56:21;4.80;;;2.55;;
26113;SDS011;13966;48.828;9.064;2023-05-15T08:58:46;6.35;;;3.28;;
26113;SDS011;13966;48.828;9.064;2023-05-15T09:01:13;3.38;;;2.80;;
26113;SDS011;13966;48.828;9.064;2023-05-15T09:03:40;3.17;;;2.45;;
26113;SDS011;13966;48.828;9.064;2023-05-15T09:06:06;3.80;;;2.90;;
26113;SDS011;13966;48.828;9.064;2023-05-15T09:08:34;2.55;;;2.33;;
26113;SDS011;13966;48.828;9.064;2023-05-15T09:11:01;3.50;;;2.55;;
26113;SDS011;13966;48.828;9.064;2023-05-15T09:13:28;3.28;;;2.50;;
26113;SDS011;13966;48.828;9.064;2023-05-15T09:15:58;5.82;;;2.53;;
26113;SDS011;13966;48.828;9.064;2023-05-15T09:18:24;5.53;;;2.80;;
26113;SDS011;13966;48.828;9.064;2023-05-15T09:20:51;4.15;;;2.90;;
26113;SDS011;13966;48.828;9.064;2023-05-15T09:23:26;3.05;;;2.67;;
26113;SDS011;13966;48.828;9.064;2023-05-15T09:25:52;5.47;;;2.20;;
26113;SDS011;13966;48.828;9.064;2023-05-15T09:28:30;4.03;;;2.70;;
26113;SDS011;13966;48.828;9.064;2023-05-15T09:31:01;3.75;;;2.90;;
26113;SDS011;13966;48.828;9.064;2023-05-15T09:33:31;4.40;;;2.58;;
26113;SDS011;13966;48.828;9.064;2023-05-15T09:35:58;5.32;;;3.03;;
26113;SDS011;13966;48.828;9.064;2023-05-15T09:38:24;4.30;;;3.00;;
26113;SDS011;13966;48.828;9.064;2023-05-15T09:40:50;3.83;;;2.83;;
26113;SDS011;13966;48.828;9.064;2023-05-15T09:43:26;4.57;;;3.00;;
26113;SDS011;13966;48.828;9.064;2023-05-15T09:45:53;3.22;;;2.70;;
26113;SDS011;13966;48.828;9.064;2023-05-15T09:48:19;4.35;;;2.95;;
26113;SDS011;13966;48.828;9.064;2023-05-15T09:50:46;3.63;;;2.92;;
26113;SDS011;13966;48.828;9.064;2023-05-15T09:53:12;6.47;;;2.75;;
26113;SDS011;13966;48.828;9.064;2023-05-15T09:55:40;5.03;;;2.80;;
26113;SDS011;13966;48.828;9.064;2023-05-15T09:58:07;3.03;;;2.60;;
26113;SDS011;13966;48.828;9.064;2023-05-15T10:00:34;3.67;;;2.50;;
26113;SDS011;13966;48.828;9.064;2023-05-15T10:03:01;6.18;;;2.67;;
26113;SDS011;13966;48.828;9.064;2023-05-15T10:05:28;5.10;;;2.60;;
26113;SDS011;13966;48.828;9.064;2023-05-15T10:07:54;3.35;;;2.40;;
26113;SDS011;13966;48.828;9.064;2023-05-15T10:10:21;41.67;;;4.28;;
26113;SDS011;13966;48.828;9.064;2023-05-15T10:12:51;3.72;;;2.47;;
26113;SDS011;13966;48.828;9.064;2023-05-15T10:15:17;3.42;;;2.50;;
26113;SDS011;13966;48.828;9.064;2023-05-15T10:17:45;7.82;;;2.75;;
26113;SDS011;13966;48.828;9.064;2023-05-15T10:20:12;3.35;;;2.60;;
26113;SDS011;13966;48.828;9.064;2023-05-15T10:22:39;3.70;;;2.53;;
26113;SDS011;13966;48.828;9.064;2023-05-15T10:25:14;3.05;;;2.40;;
26113;SDS011;13966;48.828;9.064;2023-05-15T10:27:41;5.30;;;2.42;;
26113;SDS011;13966;48.828;9.064;2023-05-15T10:30:10;5.45;;;2.70;;
26113;SDS011;13966;48.828;9.064;2023-05-15T10:32:37;5.82;;;1.98;;
26113;SDS011;13966;48.828;9.064;2023-05-15T10:35:05;3.15;;;2.35;;
26113;SDS011;13966;48.828;9.064;2023-05-15T10:37:32;3.35;;;2.00;;
26113;SDS011;13966;48.828;9.064;2023-05-15T10:40:00;4.10;;;2.35;;
26113;SDS011;13966;48.828;9.064;2023-05-15T10:42:26;3.33;;;1.90;;
26113;SDS011;13966;48.828;9.064;2023-05-15T10:44:53;3.53;;;2.38;;
26113;SDS011;13966;48.828;9.064;2023-05-15T10:47:23;1.93;;;1.77;;
26113;SDS011;13966;48.828;9.064;2023-05-15T10:49:50;4.13;;;1.98;;
26113;SDS011;13966;48.828;9.064;2023-05-15T10:52:16;3.17;;;2.13;;
26113;SDS011;13966;48.828;9.064;2023-05-15T10:54:42;5.25;;;2.20;;
26113;SDS011;13966;48.828;9.064;2023-05-15T10:57:07;1.98;;;1.88;;
26113;SDS011;13966;48.828;9.064;2023-05-15T10:59:34;3.03;;;2.10;;
26113;SDS011;13966;48.828;9.064;2023-05-15T11:04:45;2.47;;;1.95;;
26113;SDS011;13966;48.828;9.064;2023-05-15T11:07:12;3.20;;;1.60;;
26113;SDS011;13966;48.828;9.064;2023-05-15T11:09:39;3.20;;;1.83;;
26113;SDS011;13966;48.828;9.064;2023-05-15T11:12:08;2.90;;;1.90;;
26113;SDS011;13966;48.828;9.064;2023-05-15T11:17:02;2.72;;;1.63;;
26113;SDS011;13966;48.828;9.064;2023-05-15T11:19:33;3.00;;;1.73;;
26113;SDS011;13966;48.828;9.064;2023-05-15T11:22:01;4.95;;;1.65;;
26113;SDS011;13966;48.828;9.064;2023-05-15T11:24:28;4.68;;;1.88;;
26113;SDS011;13966;48.828;9.064;2023-05-15T11:26:58;2.28;;;1.50;;
26113;SDS011;13966;48.828;9.064;2023-05-15T11:29:24;1.73;;;1.48;;
26113;SDS011;13966;48.828;9.064;2023-05-15T11:31:50;1.77;;;1.65;;
26113;SDS011;13966;48.828;9.064;2023-05-15T11:34:27;2.35;;;1.52;;
26113;SDS011;13966;48.828;9.064;2023-05-15T11:36:54;2.58;;;1.50;;
26113;SDS011;13966;48.828;9.064;2023-05-15T11:39:22;4.68;;;1.77;;
26113;SDS011;13966;48.828;9.064;2023-05-15T11:41:48;3.38;;;1.45;;
26113;SDS011;13966;48.828;9.064;2023-05-15T11:44:18;3.15;;;1.50;;
26113;SDS011;13966;48.828;9.064;2023-05-15T11:46:45;2.15;;;1.30;;
26113;SDS011;13966;48.828;9.064;2023-05-15T11:49:11;4.15;;;1.52;;
26113;SDS011;13966;48.828;9.064;2023-05-15T11:51:39;3.60;;;1.50;;
26113;SDS011;13966;48.828;9.064;2023-05-15T11:54:07;2.25;;;1.52;;
26113;SDS011;13966;48.828;9.064;2023-05-15T11:56:35;2.95;;;1.42;;
26113;SDS011;13966;48.828;9.064;2023-05-15T11:59:08;2.55;;;1.33;;
26113;SDS011;13966;48.828;9.064;2023-05-15T12:01:41;1.85;;;1.60;;
26113;SDS011;13966;48.828;9.064;2023-05-15T12:04:11;3.08;;;1.60;;
26113;SDS011;13966;48.828;9.064;2023-05-15T12:06:37;2.05;;;1.33;;
26113;SDS011;13966;48.828;9.064;2023-05-15T12:09:04;1.55;;;1.00;;
26113;SDS011;13966;48.828;9.064;2023-05-15T12:11:31;3.30;;;1.30;;
26113;SDS011;13966;48.828;9.064;2023-05-15T12:13:58;1.48;;;1.10;;
26113;SDS011;13966;48.828;9.064;2023-05-15T12:16:24;3.35;;;1.30;;
26113;SDS011;13966;48.828;9.064;2023-05-15T12:18:50;3.85;;;1.30;;
26113;SDS011;13966;48.828;9.064;2023-05-15T12:21:16;2.33;;;1.40;;
26113;SDS011;13966;48.828;9.064;2023-05-15T12:23:49;1.20;;;1.10;;
26113;SDS011;13966;48.828;9.064;2023-05-15T12:26:16;1.40;;;1.30;;
26113;SDS011;13966;48.828;9.064;2023-05-15T12:28:42;2.92;;;1.38;;
26113;SDS011;13966;48.828;9.064;2023-05-15T12:31:09;2.20;;;1.20;;
26113;SDS011;13966;48.828;9.064;2023-05-15T12:33:35;2.17;;;1.30;;
26113;SDS011;13966;48.828;9.064;2023-05-15T12:36:01;2.92;;;1.30;;
26113;SDS011;13966;48.828;9.064;2023-05-15T12:38:28;1.63;;;1.40;;
26113;SDS011;13966;48.828;9.064;2023-05-15T12:40:54;1.98;;;1.42;;
26113;SDS011;13966;48.828;9.064;2023-05-15T12:43:24;2.10;;;1.30;;
26113;SDS011;13966;48.828;9.064;2023-05-15T12:45:51;2.95;;;1.23;;
26113;SDS011;13966;48.828;9.064;2023-05-15T12:48:17;1.30;;;1.10;;
26113;SDS011;13966;48.828;9.064;2023-05-15T12:50:43;2.17;;;1.20;;
26113;SDS011;13966;48.828;9.064;2023-05-15T12:53:11;3.83;;;1.38;;
26113;SDS011;13966;48.828;9.064;2023-05-15T12:55:37;1.35;;;1.20;;
26113;SDS011;13966;48.828;9.064;2023-05-15T12:58:05;3.15;;;1.50;;
26113;SDS011;13966;48.828;9.064;2023-05-15T13:00:35;4.10;;;1.30;;
26113;SDS011;13966;48.828;9.064;2023-05-15T13:03:02;3.03;;;1.30;;
26113;SDS011;13966;48.828;9.064;2023-05-15T13:05:31;2.55;;;1.50;;
26113;SDS011;13966;48.828;9.064;2023-05-15T13:07:58;1.45;;;1.13;;
26113;SDS011;13966;48.828;9.064;2023-05-15T13:10:24;3.58;;;1.52;;
26113;SDS011;13966;48.828;9.064;2023-05-15T13:12:51;2.75;;;1.45;;
26113;SDS011;13966;48.828;9.064;2023-05-15T13:18:08;5.10;;;1.80;;
26113;SDS011;13966;48.828;9.064;2023-05-15T13:23:04;5.78;;;1.80;;
26113;SDS011;13966;48.828;9.064;2023-05-15T13:25:30;2.80;;;1.70;;
26113;SDS011;13966;48.828;9.064;2023-05-15T13:27:57;1.75;;;1.42;;
26113;SDS011;13966;48.828;9.064;2023-05-15T13:30:23;2.78;;;2.00;;
26113;SDS011;13966;48.828;9.064;2023-05-15T13:32:50;3.33;;;1.70;;
26113;SDS011;13966;48.828;9.064;2023-05-15T13:35:16;1.77;;;1.42;;
26113;SDS011;13966;48.828;9.064;2023-05-15T13:37:42;2.72;;;1.98;;
26113;SDS011;13966;48.828;9.064;2023-05-15T13:40:09;3.63;;;1.80;;
26113;SDS011;13966;48.828;9.064;2023-05-15T13:42:36;2.65;;;1.70;;
26113;SDS011;13966;48.828;9.064;2023-05-15T13:45:03;3.10;;;1.52;;
26113;SDS011;13966;48.828;9.064;2023-05-15T13:47:29;2.17;;;1.60;;
26113;SDS011;13966;48.828;9.064;2023-05-15T13:49:55;7.20;;;1.60;;
26113;SDS011;13966;48.828;9.064;2023-05-15T13:52:22;1.73;;;1.60;;
26113;SDS011;13966;48.828;9.064;2023-05-15T13:54:48;2.80;;;1.55;;
26113;SDS011;13966;48.828;9.064;2023-05-15T13:57:14;1.48;;;1.38;;
26113;SDS011;13966;48.828;9.064;2023-05-15T13:59:40;3.47;;;1.83;;
26113;SDS011;13966;48.828;9.064;2023-05-15T14:02:06;2.85;;;1.40;;
26113;SDS011;13966;48.828;9.064;2023-05-15T14:04:32;4.88;;;1.60;;
26113;SDS011;13966;48.828;9.064;2023-05-15T14:06:58;1.50;;;1.40;;
26113;SDS011;13966;48.828;9.064;2023-05-15T14:09:24;1.75;;;1.58;;
26113;SDS011;13966;48.828;9.064;2023-05-15T14:11:50;2.78;;;1.50;;
26113;SDS011;13966;48.828;9.064;2023-05-15T14:14:16;3.88;;;1.63;;
26113;SDS011;13966;48.828;9.064;2023-05-15T14:16:42;3.13;;;1.65;;
26113;SDS011;13966;48.828;9.064;2023-05-15T14:19:08;2.35;;;1.40;;
26113;SDS011;13966;48.828;9.064;2023-05-15T14:21:34;3.38;;;1.33;;
26113;SDS011;13966;48.828;9.064;2023-05-15T14:24:00;2.45;;;1.58;;
26113;SDS011;13966;48.828;9.064;2023-05-15T14:26:28;2.85;;;1.50;;
26113;SDS011;13966;48.828;9.064;2023-05-15T14:28:54;1.92;;;1.38;;
26113;SDS011;13966;48.828;9.064;2023-05-15T14:31:20;1.80;;;1.23;;
26113;SDS011;13966;48.828;9.064;2023-05-15T14:33:46;1.30;;;1.20;;
26113;SDS011;13966;48.828;9.064;2023-05-15T14:36:13;3.15;;;1.05;;
26113;SDS011;13966;48.828;9.064;2023-05-15T14:38:39;1.25;;;1.08;;
26113;SDS011;13966;48.828;9.064;2023-05-15T14:41:09;2.25;;;1.50;;
26113;SDS011;13966;48.828;9.064;2023-05-15T14:43:35;4.63;;;1.60;;
26113;SDS011;13966;48.828;9.064;2023-05-15T14:46:01;1.75;;;1.45;;
26113;SDS011;13966;48.828;9.064;2023-05-15T14:48:27;1.80;;;1.15;;
26113;SDS011;13966;48.828;9.064;2023-05-15T14:50:54;3.17;;;1.67;;
26113;SDS011;13966;48.828;9.064;2023-05-15T14:53:20;4.38;;;1.73;;
26113;SDS011;13966;48.828;9.064;2023-05-15T14:55:46;7.70;;;2.10;;
26113;SDS011;13966;48.828;9.064;2023-05-15T14:58:12;3.03;;;1.60;;
26113;SDS011;13966;48.828;9.064;2023-05-15T15:00:38;5.88;;;1.80;;
26113;SDS011;13966;48.828;9.064;2023-05-15T15:03:04;3.67;;;1.75;;
26113;SDS011;13966;48.828;9.064;2023-05-15T15:05:30;3.80;;;1.70;;
26113;SDS011;13966;48.828;9.064;2023-05-15T15:08:03;3.88;;;1.77;;
26113;SDS011;13966;48.828;9.064;2023-05-15T15:10:30;2.30;;;1.85;;